sensor_id;sensor_type;location;lat;lon;timestamp;P1;durP1;ratioP1;P2;durP2;ratioP2
75486;SDS011;65009;44.762;21.516;2023-03-01T00:01:50;19.13;;;12.13;;
75486;SDS011;65009;44.762;21.516;2023-03-01T00:04:16;18.17;;;11.73;;
75486;SDS011;65009;44.762;21.516;2023-03-01T00:06:42;17.33;;;10.73;;
75486;SDS011;65009;44.762;21.516;2023-03-01T00:09:11;15.47;;;10.27;;
75486;SDS011;65009;44.762;21.516;2023-03-01T00:11:38;15.40;;;10.40;;
75486;SDS011;65009;44.762;21.516;2023-03-01T00:14:04;16.47;;;11.10;;
75486;SDS011;65009;44.762;21.516;2023-03-01T00:16:35;14.50;;;10.27;;
75486;SDS011;65009;44.762;21.516;2023-03-01T00:19:04;15.87;;;10.43;;
75486;SDS011;65009;44.762;21.516;2023-03-01T00:21:31;18.13;;;10.87;;
75486;SDS011;65009;44.762;21.516;2023-03-01T00:24:00;16.63;;;10.70;;
75486;SDS011;65009;44.762;21.516;2023-03-01T00:26:26;21.53;;;13.43;;
75486;SDS011;65009;44.762;21.516;2023-03-01T00:28:53;18.60;;;13.07;;
75486;SDS011;65009;44.762;21.516;2023-03-01T00:31:21;16.43;;;11.67;;
75486;SDS011;65009;44.762;21.516;2023-03-01T00:33:48;14.00;;;10.07;;
75486;SDS011;65009;44.762;21.516;2023-03-01T00:36:14;13.20;;;10.37;;
75486;SDS011;65009;44.762;21.516;2023-03-01T00:38:42;16.90;;;10.90;;
75486;SDS011;65009;44.762;21.516;2023-03-01T00:41:10;15.90;;;10.83;;
75486;SDS011;65009;44.762;21.516;2023-03-01T00:43:36;11.33;;;9.10;;
75486;SDS011;65009;44.762;21.516;2023-03-01T00:46:04;14.63;;;10.33;;
75486;SDS011;65009;44.762;21.516;2023-03-01T00:48:31;17.97;;;11.57;;
75486;SDS011;65009;44.762;21.516;2023-03-01T00:51:03;21.23;;;11.93;;
75486;SDS011;65009;44.762;21.516;2023-03-01T00:53:29;21.67;;;13.97;;
75486;SDS011;65009;44.762;21.516;2023-03-01T00:55:56;23.63;;;14.13;;
75486;SDS011;65009;44.762;21.516;2023-03-01T00:58:23;24.60;;;14.63;;
75486;SDS011;65009;44.762;21.516;2023-03-01T01:00:49;18.83;;;11.53;;
75486;SDS011;65009;44.762;21.516;2023-03-01T01:03:17;23.60;;;14.10;;
75486;SDS011;65009;44.762;21.516;2023-03-01T01:05:43;23.67;;;14.63;;
75486;SDS011;65009;44.762;21.516;2023-03-01T01:08:09;24.97;;;15.20;;
75486;SDS011;65009;44.762;21.516;2023-03-01T01:10:36;17.77;;;11.40;;
75486;SDS011;65009;44.762;21.516;2023-03-01T01:13:02;14.73;;;10.20;;
75486;SDS011;65009;44.762;21.516;2023-03-01T01:15:28;15.87;;;10.93;;
75486;SDS011;65009;44.762;21.516;2023-03-01T01:17:55;16.27;;;11.13;;
75486;SDS011;65009;44.762;21.516;2023-03-01T01:20:21;15.17;;;9.97;;
75486;SDS011;65009;44.762;21.516;2023-03-01T01:22:47;16.97;;;10.47;;
75486;SDS011;65009;44.762;21.516;2023-03-01T01:25:13;12.07;;;9.53;;
75486;SDS011;65009;44.762;21.516;2023-03-01T01:27:40;12.40;;;8.17;;
75486;SDS011;65009;44.762;21.516;2023-03-01T01:30:06;12.27;;;8.73;;
75486;SDS011;65009;44.762;21.516;2023-03-01T01:32:32;9.47;;;7.47;;
75486;SDS011;65009;44.762;21.516;2023-03-01T01:34:58;11.80;;;7.43;;
75486;SDS011;65009;44.762;21.516;2023-03-01T01:37:25;10.83;;;7.63;;
75486;SDS011;65009;44.762;21.516;2023-03-01T01:39:59;11.23;;;7.87;;
75486;SDS011;65009;44.762;21.516;2023-03-01T01:42:28;10.60;;;7.20;;
75486;SDS011;65009;44.762;21.516;2023-03-01T01:47:39;9.17;;;6.73;;
75486;SDS011;65009;44.762;21.516;2023-03-01T01:50:08;9.27;;;7.00;;
75486;SDS011;65009;44.762;21.516;2023-03-01T01:52:40;12.00;;;7.37;;
75486;SDS011;65009;44.762;21.516;2023-03-01T01:55:07;11.47;;;6.87;;
75486;SDS011;65009;44.762;21.516;2023-03-01T01:57:36;11.50;;;7.60;;
75486;SDS011;65009;44.762;21.516;2023-03-01T02:00:05;11.47;;;7.23;;
75486;SDS011;65009;44.762;21.516;2023-03-01T02:02:32;8.90;;;6.17;;
75486;SDS011;65009;44.762;21.516;2023-03-01T02:05:01;8.27;;;5.83;;
75486;SDS011;65009;44.762;21.516;2023-03-01T02:07:29;8.47;;;5.90;;
75486;SDS011;65009;44.762;21.516;2023-03-01T02:09:56;9.47;;;6.50;;
75486;SDS011;65009;44.762;21.516;2023-03-01T02:12:23;7.40;;;5.70;;
75486;SDS011;65009;44.762;21.516;2023-03-01T02:14:50;10.57;;;6.30;;
75486;SDS011;65009;44.762;21.516;2023-03-01T02:17:16;6.47;;;5.50;;
75486;SDS011;65009;44.762;21.516;2023-03-01T02:19:59;9.03;;;5.80;;
75486;SDS011;65009;44.762;21.516;2023-03-01T02:22:32;6.53;;;5.33;;
75486;SDS011;65009;44.762;21.516;2023-03-01T02:29:57;9.17;;;5.93;;
75486;SDS011;65009;44.762;21.516;2023-03-01T02:32:23;16.27;;;7.63;;
75486;SDS011;65009;44.762;21.516;2023-03-01T02:34:53;14.53;;;8.30;;
75486;SDS011;65009;44.762;21.516;2023-03-01T02:37:20;11.97;;;7.67;;
75486;SDS011;65009;44.762;21.516;2023-03-01T02:39:59;13.33;;;8.17;;
75486;SDS011;65009;44.762;21.516;2023-03-01T02:42:35;11.30;;;7.60;;
75486;SDS011;65009;44.762;21.516;2023-03-01T02:45:02;12.27;;;7.40;;
75486;SDS011;65009;44.762;21.516;2023-03-01T02:47:29;15.53;;;7.43;;
75486;SDS011;65009;44.762;21.516;2023-03-01T02:49:55;14.03;;;8.07;;
75486;SDS011;65009;44.762;21.516;2023-03-01T02:52:33;13.13;;;6.97;;
75486;SDS011;65009;44.762;21.516;2023-03-01T02:55:07;9.27;;;6.43;;
75486;SDS011;65009;44.762;21.516;2023-03-01T02:57:35;14.73;;;8.90;;
75486;SDS011;65009;44.762;21.516;2023-03-01T03:00:06;10.87;;;6.67;;
75486;SDS011;65009;44.762;21.516;2023-03-01T03:02:33;12.43;;;7.83;;
75486;SDS011;65009;44.762;21.516;2023-03-01T03:05:07;14.33;;;8.60;;
75486;SDS011;65009;44.762;21.516;2023-03-01T03:07:37;12.13;;;8.68;;
75486;SDS011;65009;44.762;21.516;2023-03-01T03:10:05;12.37;;;7.83;;
75486;SDS011;65009;44.762;21.516;2023-03-01T03:12:31;15.63;;;9.53;;
75486;SDS011;65009;44.762;21.516;2023-03-01T03:14:58;15.73;;;9.70;;
75486;SDS011;65009;44.762;21.516;2023-03-01T03:17:24;14.93;;;9.37;;
75486;SDS011;65009;44.762;21.516;2023-03-01T03:19:50;15.50;;;9.20;;
75486;SDS011;65009;44.762;21.516;2023-03-01T03:22:16;13.30;;;8.80;;
75486;SDS011;65009;44.762;21.516;2023-03-01T03:24:43;12.67;;;8.17;;
75486;SDS011;65009;44.762;21.516;2023-03-01T03:27:09;13.37;;;8.87;;
75486;SDS011;65009;44.762;21.516;2023-03-01T03:29:35;14.20;;;8.93;;
75486;SDS011;65009;44.762;21.516;2023-03-01T03:32:01;12.60;;;8.37;;
75486;SDS011;65009;44.762;21.516;2023-03-01T03:34:28;12.90;;;7.93;;
75486;SDS011;65009;44.762;21.516;2023-03-01T03:36:55;12.63;;;7.73;;
75486;SDS011;65009;44.762;21.516;2023-03-01T03:39:25;10.17;;;7.00;;
75486;SDS011;65009;44.762;21.516;2023-03-01T03:41:52;12.20;;;7.93;;
75486;SDS011;65009;44.762;21.516;2023-03-01T03:44:19;11.07;;;8.20;;
75486;SDS011;65009;44.762;21.516;2023-03-01T03:46:45;12.00;;;7.90;;
75486;SDS011;65009;44.762;21.516;2023-03-01T03:49:11;12.23;;;7.33;;
75486;SDS011;65009;44.762;21.516;2023-03-01T03:51:37;10.80;;;7.07;;
75486;SDS011;65009;44.762;21.516;2023-03-01T03:54:04;15.90;;;9.03;;
75486;SDS011;65009;44.762;21.516;2023-03-01T03:56:30;14.70;;;8.30;;
75486;SDS011;65009;44.762;21.516;2023-03-01T03:58:56;11.43;;;7.57;;
75486;SDS011;65009;44.762;21.516;2023-03-01T04:01:22;19.57;;;10.83;;
75486;SDS011;65009;44.762;21.516;2023-03-01T04:03:49;50.40;;;22.20;;
75486;SDS011;65009;44.762;21.516;2023-03-01T04:06:19;49.27;;;20.63;;
75486;SDS011;65009;44.762;21.516;2023-03-01T04:08:46;32.90;;;15.00;;
75486;SDS011;65009;44.762;21.516;2023-03-01T04:11:16;24.10;;;12.37;;
75486;SDS011;65009;44.762;21.516;2023-03-01T04:13:52;19.83;;;11.27;;
75486;SDS011;65009;44.762;21.516;2023-03-01T04:16:19;22.37;;;11.60;;
75486;SDS011;65009;44.762;21.516;2023-03-01T04:18:45;57.63;;;24.37;;
75486;SDS011;65009;44.762;21.516;2023-03-01T04:21:12;69.60;;;29.43;;
75486;SDS011;65009;44.762;21.516;2023-03-01T04:23:38;42.60;;;20.13;;
75486;SDS011;65009;44.762;21.516;2023-03-01T04:26:05;41.80;;;21.10;;
75486;SDS011;65009;44.762;21.516;2023-03-01T04:28:36;29.03;;;15.77;;
75486;SDS011;65009;44.762;21.516;2023-03-01T04:31:04;28.80;;;19.07;;
75486;SDS011;65009;44.762;21.516;2023-03-01T04:33:38;18.13;;;12.77;;
75486;SDS011;65009;44.762;21.516;2023-03-01T04:36:05;18.30;;;11.97;;
75486;SDS011;65009;44.762;21.516;2023-03-01T04:38:34;16.97;;;9.80;;
75486;SDS011;65009;44.762;21.516;2023-03-01T04:41:01;25.10;;;14.10;;
75486;SDS011;65009;44.762;21.516;2023-03-01T04:43:28;52.90;;;22.83;;
75486;SDS011;65009;44.762;21.516;2023-03-01T04:45:54;49.10;;;20.47;;
75486;SDS011;65009;44.762;21.516;2023-03-01T04:48:27;52.67;;;20.27;;
75486;SDS011;65009;44.762;21.516;2023-03-01T04:50:54;29.30;;;12.67;;
75486;SDS011;65009;44.762;21.516;2023-03-01T04:53:20;50.40;;;19.20;;
75486;SDS011;65009;44.762;21.516;2023-03-01T04:55:46;26.23;;;12.43;;
75486;SDS011;65009;44.762;21.516;2023-03-01T04:58:12;34.20;;;17.03;;
75486;SDS011;65009;44.762;21.516;2023-03-01T05:00:38;23.80;;;13.10;;
75486;SDS011;65009;44.762;21.516;2023-03-01T05:03:05;25.73;;;13.93;;
75486;SDS011;65009;44.762;21.516;2023-03-01T05:05:32;24.83;;;12.97;;
75486;SDS011;65009;44.762;21.516;2023-03-01T05:08:00;22.13;;;11.83;;
75486;SDS011;65009;44.762;21.516;2023-03-01T05:10:27;29.53;;;14.43;;
75486;SDS011;65009;44.762;21.516;2023-03-01T05:12:54;28.70;;;14.03;;
75486;SDS011;65009;44.762;21.516;2023-03-01T05:15:22;24.27;;;12.73;;
75486;SDS011;65009;44.762;21.516;2023-03-01T05:17:53;32.13;;;15.17;;
75486;SDS011;65009;44.762;21.516;2023-03-01T05:20:19;28.17;;;12.87;;
75486;SDS011;65009;44.762;21.516;2023-03-01T05:22:49;22.60;;;11.63;;
75486;SDS011;65009;44.762;21.516;2023-03-01T05:25:16;41.60;;;16.50;;
75486;SDS011;65009;44.762;21.516;2023-03-01T05:27:42;37.30;;;15.63;;
75486;SDS011;65009;44.762;21.516;2023-03-01T05:30:08;55.33;;;23.00;;
75486;SDS011;65009;44.762;21.516;2023-03-01T05:32:48;39.30;;;17.50;;
75486;SDS011;65009;44.762;21.516;2023-03-01T05:35:15;23.10;;;13.17;;
75486;SDS011;65009;44.762;21.516;2023-03-01T05:37:42;19.23;;;11.93;;
75486;SDS011;65009;44.762;21.516;2023-03-01T05:40:10;15.27;;;10.77;;
75486;SDS011;65009;44.762;21.516;2023-03-01T05:42:44;27.73;;;15.07;;
75486;SDS011;65009;44.762;21.516;2023-03-01T05:45:11;19.90;;;11.97;;
75486;SDS011;65009;44.762;21.516;2023-03-01T05:47:41;17.20;;;11.23;;
75486;SDS011;65009;44.762;21.516;2023-03-01T05:50:10;16.35;;;10.20;;
75486;SDS011;65009;44.762;21.516;2023-03-01T05:52:36;16.57;;;10.67;;
75486;SDS011;65009;44.762;21.516;2023-03-01T05:55:02;16.90;;;10.37;;
75486;SDS011;65009;44.762;21.516;2023-03-01T05:57:29;17.33;;;11.20;;
75486;SDS011;65009;44.762;21.516;2023-03-01T05:59:55;18.60;;;12.10;;
75486;SDS011;65009;44.762;21.516;2023-03-01T06:02:21;17.63;;;10.60;;
75486;SDS011;65009;44.762;21.516;2023-03-01T06:04:48;15.27;;;9.67;;
75486;SDS011;65009;44.762;21.516;2023-03-01T06:07:14;16.37;;;9.67;;
75486;SDS011;65009;44.762;21.516;2023-03-01T06:09:40;12.67;;;8.83;;
75486;SDS011;65009;44.762;21.516;2023-03-01T06:12:06;15.50;;;9.80;;
75486;SDS011;65009;44.762;21.516;2023-03-01T06:14:33;13.07;;;8.93;;
75486;SDS011;65009;44.762;21.516;2023-03-01T06:16:59;16.43;;;10.80;;
75486;SDS011;65009;44.762;21.516;2023-03-01T06:19:25;21.43;;;11.23;;
75486;SDS011;65009;44.762;21.516;2023-03-01T06:21:51;12.20;;;8.43;;
75486;SDS011;65009;44.762;21.516;2023-03-01T06:24:18;12.37;;;8.67;;
75486;SDS011;65009;44.762;21.516;2023-03-01T06:26:44;12.83;;;8.77;;
75486;SDS011;65009;44.762;21.516;2023-03-01T06:29:10;15.57;;;9.33;;
75486;SDS011;65009;44.762;21.516;2023-03-01T06:31:37;17.80;;;9.30;;
75486;SDS011;65009;44.762;21.516;2023-03-01T06:34:03;15.43;;;9.77;;
75486;SDS011;65009;44.762;21.516;2023-03-01T06:36:29;15.03;;;8.53;;
75486;SDS011;65009;44.762;21.516;2023-03-01T06:38:55;14.27;;;8.20;;
75486;SDS011;65009;44.762;21.516;2023-03-01T06:41:21;9.87;;;7.10;;
75486;SDS011;65009;44.762;21.516;2023-03-01T06:43:47;14.33;;;7.23;;
75486;SDS011;65009;44.762;21.516;2023-03-01T06:46:13;10.20;;;6.47;;
75486;SDS011;65009;44.762;21.516;2023-03-01T06:48:40;13.50;;;7.77;;
75486;SDS011;65009;44.762;21.516;2023-03-01T06:51:06;22.10;;;7.77;;
75486;SDS011;65009;44.762;21.516;2023-03-01T06:53:32;10.43;;;7.33;;
75486;SDS011;65009;44.762;21.516;2023-03-01T06:55:58;14.83;;;8.70;;
75486;SDS011;65009;44.762;21.516;2023-03-01T06:58:25;12.67;;;8.73;;
75486;SDS011;65009;44.762;21.516;2023-03-01T07:00:51;9.60;;;5.77;;
75486;SDS011;65009;44.762;21.516;2023-03-01T07:03:17;16.57;;;8.90;;
75486;SDS011;65009;44.762;21.516;2023-03-01T07:05:44;9.43;;;5.83;;
75486;SDS011;65009;44.762;21.516;2023-03-01T07:08:10;11.60;;;7.47;;
75486;SDS011;65009;44.762;21.516;2023-03-01T07:10:36;12.90;;;7.33;;
75486;SDS011;65009;44.762;21.516;2023-03-01T07:13:03;17.00;;;7.53;;
75486;SDS011;65009;44.762;21.516;2023-03-01T07:15:31;8.93;;;5.90;;
75486;SDS011;65009;44.762;21.516;2023-03-01T07:17:58;11.43;;;6.50;;
75486;SDS011;65009;44.762;21.516;2023-03-01T07:20:24;13.87;;;8.33;;
75486;SDS011;65009;44.762;21.516;2023-03-01T07:22:53;13.53;;;7.93;;
75486;SDS011;65009;44.762;21.516;2023-03-01T07:25:20;17.80;;;9.93;;
75486;SDS011;65009;44.762;21.516;2023-03-01T07:27:52;21.20;;;10.73;;
75486;SDS011;65009;44.762;21.516;2023-03-01T07:30:19;19.83;;;10.27;;
75486;SDS011;65009;44.762;21.516;2023-03-01T07:32:45;18.17;;;7.87;;
75486;SDS011;65009;44.762;21.516;2023-03-01T07:35:11;6.70;;;4.70;;
75486;SDS011;65009;44.762;21.516;2023-03-01T07:37:39;9.33;;;5.87;;
75486;SDS011;65009;44.762;21.516;2023-03-01T07:40:06;11.97;;;6.73;;
75486;SDS011;65009;44.762;21.516;2023-03-01T07:42:32;7.87;;;5.37;;
75486;SDS011;65009;44.762;21.516;2023-03-01T07:44:58;5.57;;;4.67;;
75486;SDS011;65009;44.762;21.516;2023-03-01T07:47:25;6.13;;;4.50;;
75486;SDS011;65009;44.762;21.516;2023-03-01T07:49:51;11.00;;;6.77;;
75486;SDS011;65009;44.762;21.516;2023-03-01T07:52:17;7.43;;;5.23;;
75486;SDS011;65009;44.762;21.516;2023-03-01T07:54:43;8.30;;;5.53;;
75486;SDS011;65009;44.762;21.516;2023-03-01T07:57:09;8.03;;;5.53;;
75486;SDS011;65009;44.762;21.516;2023-03-01T07:59:36;15.00;;;6.93;;
75486;SDS011;65009;44.762;21.516;2023-03-01T08:02:02;8.40;;;4.87;;
75486;SDS011;65009;44.762;21.516;2023-03-01T08:04:28;10.30;;;6.03;;
75486;SDS011;65009;44.762;21.516;2023-03-01T08:06:54;7.53;;;5.50;;
75486;SDS011;65009;44.762;21.516;2023-03-01T08:09:21;13.20;;;7.90;;
75486;SDS011;65009;44.762;21.516;2023-03-01T08:11:47;14.37;;;8.00;;
75486;SDS011;65009;44.762;21.516;2023-03-01T08:14:13;19.97;;;12.30;;
75486;SDS011;65009;44.762;21.516;2023-03-01T08:16:39;14.60;;;8.87;;
75486;SDS011;65009;44.762;21.516;2023-03-01T08:19:06;9.90;;;6.93;;
75486;SDS011;65009;44.762;21.516;2023-03-01T08:21:33;11.00;;;5.77;;
75486;SDS011;65009;44.762;21.516;2023-03-01T08:24:02;11.60;;;6.40;;
75486;SDS011;65009;44.762;21.516;2023-03-01T08:26:29;9.70;;;5.83;;
75486;SDS011;65009;44.762;21.516;2023-03-01T08:28:55;14.27;;;6.57;;
75486;SDS011;65009;44.762;21.516;2023-03-01T08:31:23;9.37;;;5.80;;
75486;SDS011;65009;44.762;21.516;2023-03-01T08:33:50;8.03;;;5.57;;
75486;SDS011;65009;44.762;21.516;2023-03-01T08:36:25;8.33;;;5.47;;
75486;SDS011;65009;44.762;21.516;2023-03-01T08:38:52;11.13;;;6.50;;
75486;SDS011;65009;44.762;21.516;2023-03-01T08:41:18;13.37;;;8.13;;
75486;SDS011;65009;44.762;21.516;2023-03-01T08:43:44;10.67;;;6.90;;
75486;SDS011;65009;44.762;21.516;2023-03-01T08:46:11;8.27;;;5.47;;
75486;SDS011;65009;44.762;21.516;2023-03-01T08:48:38;12.40;;;7.90;;
75486;SDS011;65009;44.762;21.516;2023-03-01T08:51:08;11.63;;;6.83;;
75486;SDS011;65009;44.762;21.516;2023-03-01T08:53:34;26.93;;;15.87;;
75486;SDS011;65009;44.762;21.516;2023-03-01T08:56:01;13.57;;;7.00;;
75486;SDS011;65009;44.762;21.516;2023-03-01T08:58:28;8.43;;;6.20;;
75486;SDS011;65009;44.762;21.516;2023-03-01T09:00:54;11.73;;;6.63;;
75486;SDS011;65009;44.762;21.516;2023-03-01T09:03:22;13.13;;;6.80;;
75486;SDS011;65009;44.762;21.516;2023-03-01T09:05:52;15.10;;;6.50;;
75486;SDS011;65009;44.762;21.516;2023-03-01T09:08:18;11.00;;;6.10;;
75486;SDS011;65009;44.762;21.516;2023-03-01T09:10:45;15.73;;;10.43;;
75486;SDS011;65009;44.762;21.516;2023-03-01T09:13:11;11.23;;;6.33;;
75486;SDS011;65009;44.762;21.516;2023-03-01T09:15:37;10.93;;;6.97;;
75486;SDS011;65009;44.762;21.516;2023-03-01T09:18:04;14.67;;;7.23;;
75486;SDS011;65009;44.762;21.516;2023-03-01T09:20:30;17.70;;;7.23;;
75486;SDS011;65009;44.762;21.516;2023-03-01T09:22:57;18.57;;;9.53;;
75486;SDS011;65009;44.762;21.516;2023-03-01T09:25:24;30.93;;;20.20;;
75486;SDS011;65009;44.762;21.516;2023-03-01T09:27:51;31.67;;;19.80;;
75486;SDS011;65009;44.762;21.516;2023-03-01T09:30:17;31.23;;;17.63;;
75486;SDS011;65009;44.762;21.516;2023-03-01T09:32:44;19.60;;;11.27;;
75486;SDS011;65009;44.762;21.516;2023-03-01T09:35:10;14.57;;;6.50;;
75486;SDS011;65009;44.762;21.516;2023-03-01T09:37:37;11.97;;;6.80;;
75486;SDS011;65009;44.762;21.516;2023-03-01T09:40:06;14.73;;;6.70;;
75486;SDS011;65009;44.762;21.516;2023-03-01T09:42:34;15.00;;;8.30;;
75486;SDS011;65009;44.762;21.516;2023-03-01T09:45:05;17.60;;;7.13;;
75486;SDS011;65009;44.762;21.516;2023-03-01T09:47:32;17.27;;;8.70;;
75486;SDS011;65009;44.762;21.516;2023-03-01T10:00:42;12.83;;;8.13;;
75486;SDS011;65009;44.762;21.516;2023-03-01T10:03:12;8.80;;;6.13;;
75486;SDS011;65009;44.762;21.516;2023-03-01T10:08:19;11.13;;;5.77;;
75486;SDS011;65009;44.762;21.516;2023-03-01T10:10:50;13.67;;;7.87;;
75486;SDS011;65009;44.762;21.516;2023-03-01T10:15:44;14.30;;;7.57;;
75486;SDS011;65009;44.762;21.516;2023-03-01T10:18:17;12.60;;;7.23;;
75486;SDS011;65009;44.762;21.516;2023-03-01T10:21:01;10.43;;;6.05;;
75486;SDS011;65009;44.762;21.516;2023-03-01T10:23:29;12.20;;;6.67;;
75486;SDS011;65009;44.762;21.516;2023-03-01T10:26:02;12.67;;;7.07;;
75486;SDS011;65009;44.762;21.516;2023-03-01T10:28:42;13.40;;;8.40;;
75486;SDS011;65009;44.762;21.516;2023-03-01T10:31:15;21.13;;;10.67;;
75486;SDS011;65009;44.762;21.516;2023-03-01T10:33:43;14.73;;;8.90;;
75486;SDS011;65009;44.762;21.516;2023-03-01T10:36:09;23.70;;;12.67;;
75486;SDS011;65009;44.762;21.516;2023-03-01T10:38:49;23.50;;;12.40;;
75486;SDS011;65009;44.762;21.516;2023-03-01T10:41:17;21.38;;;12.45;;
75486;SDS011;65009;44.762;21.516;2023-03-01T10:43:47;23.47;;;13.13;;
75486;SDS011;65009;44.762;21.516;2023-03-01T10:46:28;23.17;;;11.40;;
75486;SDS011;65009;44.762;21.516;2023-03-01T10:49:14;18.57;;;10.60;;
75486;SDS011;65009;44.762;21.516;2023-03-01T10:51:41;19.60;;;9.73;;
75486;SDS011;65009;44.762;21.516;2023-03-01T10:54:18;28.20;;;15.50;;
75486;SDS011;65009;44.762;21.516;2023-03-01T10:56:48;28.37;;;15.17;;
75486;SDS011;65009;44.762;21.516;2023-03-01T10:59:22;25.35;;;12.60;;
75486;SDS011;65009;44.762;21.516;2023-03-01T11:02:00;23.87;;;12.27;;
75486;SDS011;65009;44.762;21.516;2023-03-01T11:04:27;21.53;;;12.03;;
75486;SDS011;65009;44.762;21.516;2023-03-01T11:07:00;19.50;;;11.07;;
75486;SDS011;65009;44.762;21.516;2023-03-01T11:09:29;28.00;;;13.63;;
75486;SDS011;65009;44.762;21.516;2023-03-01T11:12:02;24.43;;;13.47;;
75486;SDS011;65009;44.762;21.516;2023-03-01T11:14:31;23.83;;;11.60;;
75486;SDS011;65009;44.762;21.516;2023-03-01T11:17:12;25.70;;;14.17;;
75486;SDS011;65009;44.762;21.516;2023-03-01T11:19:40;24.40;;;14.45;;
75486;SDS011;65009;44.762;21.516;2023-03-01T11:22:13;20.75;;;11.02;;
75486;SDS011;65009;44.762;21.516;2023-03-01T11:24:52;18.20;;;9.80;;
75486;SDS011;65009;44.762;21.516;2023-03-01T11:27:25;17.08;;;9.60;;
75486;SDS011;65009;44.762;21.516;2023-03-01T11:29:54;18.08;;;11.32;;
75486;SDS011;65009;44.762;21.516;2023-03-01T11:32:22;12.80;;;7.50;;
75486;SDS011;65009;44.762;21.516;2023-03-01T11:34:54;18.73;;;12.13;;
75486;SDS011;65009;44.762;21.516;2023-03-01T11:37:30;13.23;;;8.25;;
75486;SDS011;65009;44.762;21.516;2023-03-01T11:40:00;15.65;;;10.90;;
75486;SDS011;65009;44.762;21.516;2023-03-01T11:45:11;18.48;;;10.15;;
75486;SDS011;65009;44.762;21.516;2023-03-01T11:52:45;20.17;;;12.60;;
75486;SDS011;65009;44.762;21.516;2023-03-01T11:55:19;23.93;;;14.70;;
75486;SDS011;65009;44.762;21.516;2023-03-01T11:58:11;14.80;;;9.73;;
75486;SDS011;65009;44.762;21.516;2023-03-01T12:06:09;15.13;;;9.67;;
75486;SDS011;65009;44.762;21.516;2023-03-01T12:08:41;12.70;;;9.07;;
75486;SDS011;65009;44.762;21.516;2023-03-01T12:11:18;7.77;;;5.90;;
75486;SDS011;65009;44.762;21.516;2023-03-01T12:21:21;28.63;;;14.77;;
75486;SDS011;65009;44.762;21.516;2023-03-01T12:24:12;13.03;;;7.33;;
75486;SDS011;65009;44.762;21.516;2023-03-01T12:29:28;11.30;;;8.80;;
75486;SDS011;65009;44.762;21.516;2023-03-01T12:39:42;9.77;;;5.87;;
75486;SDS011;65009;44.762;21.516;2023-03-01T12:44:41;11.40;;;6.77;;
75486;SDS011;65009;44.762;21.516;2023-03-01T12:49:40;13.30;;;8.87;;
75486;SDS011;65009;44.762;21.516;2023-03-01T12:52:13;17.60;;;7.33;;
75486;SDS011;65009;44.762;21.516;2023-03-01T12:54:40;11.80;;;6.68;;
75486;SDS011;65009;44.762;21.516;2023-03-01T12:57:26;7.93;;;5.88;;
75486;SDS011;65009;44.762;21.516;2023-03-01T13:09:55;11.20;;;8.20;;
75486;SDS011;65009;44.762;21.516;2023-03-01T13:17:50;16.40;;;12.18;;
75486;SDS011;65009;44.762;21.516;2023-03-01T13:20:21;13.50;;;8.32;;
75486;SDS011;65009;44.762;21.516;2023-03-01T13:22:49;11.57;;;8.07;;
75486;SDS011;65009;44.762;21.516;2023-03-01T13:25:26;8.27;;;7.07;;
75486;SDS011;65009;44.762;21.516;2023-03-01T13:27:52;18.95;;;10.73;;
75486;SDS011;65009;44.762;21.516;2023-03-01T13:30:39;14.48;;;9.85;;
75486;SDS011;65009;44.762;21.516;2023-03-01T13:35:50;18.13;;;11.25;;
75486;SDS011;65009;44.762;21.516;2023-03-01T13:41:02;13.45;;;9.70;;
75486;SDS011;65009;44.762;21.516;2023-03-01T13:43:38;15.27;;;11.60;;
75486;SDS011;65009;44.762;21.516;2023-03-01T13:46:12;16.23;;;11.30;;
75486;SDS011;65009;44.762;21.516;2023-03-01T13:48:41;17.73;;;10.73;;
75486;SDS011;65009;44.762;21.516;2023-03-01T13:51:09;13.43;;;9.93;;
75486;SDS011;65009;44.762;21.516;2023-03-01T13:53:37;14.60;;;10.27;;
75486;SDS011;65009;44.762;21.516;2023-03-01T13:56:09;13.10;;;10.10;;
75486;SDS011;65009;44.762;21.516;2023-03-01T14:01:21;15.93;;;11.10;;
75486;SDS011;65009;44.762;21.516;2023-03-01T14:03:47;13.10;;;9.57;;
75486;SDS011;65009;44.762;21.516;2023-03-01T14:06:15;17.75;;;11.40;;
75486;SDS011;65009;44.762;21.516;2023-03-01T14:08:43;19.05;;;10.50;;
75486;SDS011;65009;44.762;21.516;2023-03-01T14:13:39;13.27;;;9.90;;
75486;SDS011;65009;44.762;21.516;2023-03-01T14:16:12;16.92;;;10.05;;
75486;SDS011;65009;44.762;21.516;2023-03-01T14:18:47;15.65;;;11.05;;
75486;SDS011;65009;44.762;21.516;2023-03-01T14:21:17;24.88;;;14.38;;
75486;SDS011;65009;44.762;21.516;2023-03-01T14:23:43;36.22;;;18.67;;
75486;SDS011;65009;44.762;21.516;2023-03-01T14:26:11;20.88;;;12.38;;
75486;SDS011;65009;44.762;21.516;2023-03-01T14:28:38;26.23;;;15.23;;
75486;SDS011;65009;44.762;21.516;2023-03-01T14:31:29;19.27;;;11.53;;
75486;SDS011;65009;44.762;21.516;2023-03-01T14:33:54;26.63;;;14.37;;
75486;SDS011;65009;44.762;21.516;2023-03-01T14:36:26;35.17;;;16.63;;
75486;SDS011;65009;44.762;21.516;2023-03-01T14:38:52;25.65;;;13.35;;
75486;SDS011;65009;44.762;21.516;2023-03-01T14:41:22;24.60;;;12.73;;
75486;SDS011;65009;44.762;21.516;2023-03-01T14:46:19;28.33;;;15.67;;
75486;SDS011;65009;44.762;21.516;2023-03-01T14:48:48;23.20;;;13.13;;
75486;SDS011;65009;44.762;21.516;2023-03-01T14:51:14;26.27;;;16.17;;
75486;SDS011;65009;44.762;21.516;2023-03-01T14:53:41;30.67;;;16.67;;
75486;SDS011;65009;44.762;21.516;2023-03-01T14:56:12;33.50;;;20.10;;
75486;SDS011;65009;44.762;21.516;2023-03-01T14:58:38;37.90;;;21.38;;
75486;SDS011;65009;44.762;21.516;2023-03-01T15:01:05;27.87;;;16.63;;
75486;SDS011;65009;44.762;21.516;2023-03-01T15:03:37;30.53;;;17.27;;
75486;SDS011;65009;44.762;21.516;2023-03-01T15:06:04;31.93;;;19.73;;
75486;SDS011;65009;44.762;21.516;2023-03-01T15:08:31;35.20;;;21.03;;
75486;SDS011;65009;44.762;21.516;2023-03-01T15:11:05;37.70;;;20.80;;
75486;SDS011;65009;44.762;21.516;2023-03-01T15:13:32;28.27;;;18.37;;
75486;SDS011;65009;44.762;21.516;2023-03-01T15:16:02;31.27;;;19.67;;
75486;SDS011;65009;44.762;21.516;2023-03-01T15:18:30;44.50;;;23.23;;
75486;SDS011;65009;44.762;21.516;2023-03-01T15:20:56;41.83;;;25.50;;
75486;SDS011;65009;44.762;21.516;2023-03-01T15:23:30;34.30;;;19.03;;
75486;SDS011;65009;44.762;21.516;2023-03-01T15:25:57;34.53;;;20.23;;
75486;SDS011;65009;44.762;21.516;2023-03-01T15:28:33;36.03;;;19.63;;
75486;SDS011;65009;44.762;21.516;2023-03-01T15:33:36;35.73;;;18.97;;
75486;SDS011;65009;44.762;21.516;2023-03-01T15:36:04;32.40;;;17.17;;
75486;SDS011;65009;44.762;21.516;2023-03-01T15:38:53;48.40;;;23.83;;
75486;SDS011;65009;44.762;21.516;2023-03-01T15:41:24;32.80;;;18.90;;
75486;SDS011;65009;44.762;21.516;2023-03-01T15:43:51;33.88;;;19.77;;
75486;SDS011;65009;44.762;21.516;2023-03-01T15:46:27;28.70;;;17.77;;
75486;SDS011;65009;44.762;21.516;2023-03-01T15:48:55;30.93;;;18.90;;
75486;SDS011;65009;44.762;21.516;2023-03-01T15:51:23;32.63;;;20.43;;
75486;SDS011;65009;44.762;21.516;2023-03-01T15:53:53;40.78;;;21.42;;
75486;SDS011;65009;44.762;21.516;2023-03-01T15:56:19;52.13;;;24.63;;